HETCH HETCHY (HTH)

Elevation: 3870' · TUOLUMNE R basin · Operator: Hetch Hetchy Water and Power

Provisional data, subject to change.
Query executed Tuesday at 16:44:23   clock

Select a sensor type for a plot of data.
Note: Reservoir Flows are daily averages.

Earlier

Date RES ELE    STORAGE    RES CHG    OUTFLOW    INFLOW    PPT INC    RAIN    PPTINC4   
 FEET   AF   AF   CFS   CFS   INCHES   INCHES   INCHES  
08/31/2014 -- 301990 -- 363 -- 0.00 21.10 0.00
09/01/2014 -- 301250 -- 387 -- 0.00 21.10 0.00
09/02/2014 -- 300320 -- 460 -- 0.00 21.10 0.00
09/03/2014 -- 299400 -- 486 -- 0.00 21.10 0.00
09/04/2014 -- 298660 -- 450 -- 0.00 21.10 0.00
09/05/2014 -- 297730 -- 467 -- 0.00 21.10 0.00
09/06/2014 -- 296990 -- 399 -- 0.00 21.10 0.00
09/07/2014 -- 296260 -- 330 -- 0.00 21.10 0.00
09/08/2014 -- 295520 -- 448 -- 0.03 21.13 0.00
09/09/2014 -- 294600 -- 466 -- 0.00 21.13 0.15
09/10/2014 -- 293680 -- 464 -- 0.00 21.13 0.00
09/11/2014 -- 292940 -- 451 -- 0.00 21.13 0.00
09/12/2014 -- 292020 -- 468 -- 0.00 21.13 0.00
09/13/2014 -- 291290 -- 414 -- 0.00 21.13 0.00
09/14/2014 -- 290560 -- 352 -- 0.00 21.13 0.00
09/15/2014 -- 289640 -- 418 -- 0.00 21.13 0.00
09/16/2014 -- 288910 -- 434 -- 0.00 21.13 0.00
09/17/2014 -- 288180 -- 354 -- 0.00 21.13 0.00
09/18/2014 -- 288000 -- 63 -- 0.00 21.13 0.00
09/19/2014 -- 287080 -- 465 -- 0.00 21.13 0.00
09/20/2014 -- 286530 -- 368 -- 0.00 21.13 0.00
09/21/2014 -- 285800 -- 378 -- 0.00 21.13 0.03
09/22/2014 -- 285080 -- 383 -- 0.00 21.13 0.00
09/23/2014 -- 284170 -- 453 -- 0.00 21.13 0.00
09/24/2014 -- 283440 -- 440 -- 0.00 21.13 0.00
09/25/2014 -- 282530 -- 441 -- 0.00 21.13 0.00
09/26/2014 -- 281810 -- 410 -- 0.02 21.15 0.01
09/27/2014 -- 281080 -- 402 -- 0.04 21.19 0.03
09/28/2014 -- 280360 -- 349 -- 0.36 21.55 0.32
09/29/2014 -- 279630 -- 363 -- 0.00 21.55 0.24
09/30/2014 -- -- -- -- -- 0.00 -- 0.00

Later | Latest

Warning! This data is preliminary and subject to revision.

Download Data Now Download Data Now | Show HTH Map | Plot HTH Data | 1 Month HTH Data | Real-Time HTH Data | HTH Info